createdAt,value
2023-01-08T00:00:56.271Z,256.17
2023-01-08T00:01:58.688Z,176.00
2023-01-08T00:03:01.871Z,181.27
2023-01-08T00:04:04.998Z,184.10
2023-01-08T00:05:07.879Z,193.27
2023-01-08T00:06:15.099Z,252.52
2023-01-08T00:07:16.928Z,197.02
2023-01-08T00:08:21.336Z,182.10
2023-01-08T00:09:23.186Z,202.60
2023-01-08T00:10:26.110Z,170.77
2023-01-08T00:11:28.477Z,150.38
2023-01-08T00:12:31.243Z,134.45
2023-01-08T00:13:33.431Z,128.63
2023-01-08T00:14:36.224Z,143.88
2023-01-08T00:15:38.071Z,144.82
2023-01-08T00:16:41.230Z,139.55
2023-01-08T00:17:43.393Z,125.32
2023-01-08T00:18:46.677Z,136.25
2023-01-08T00:19:48.625Z,141.95
2023-01-08T00:20:51.677Z,118.63
2023-01-08T00:21:53.591Z,109.43
2023-01-08T00:22:56.500Z,117.53
2023-01-08T00:23:59.965Z,112.00
2023-01-08T00:25:02.861Z,107.30
2023-01-08T00:26:06.203Z,111.53
2023-01-08T00:27:09.309Z,104.82
2023-01-08T00:28:11.616Z,89.05
2023-01-08T00:29:14.407Z,101.63
2023-01-08T00:30:36.785Z,87.13
2023-01-08T00:31:39.723Z,73.38
2023-01-08T00:32:41.572Z,83.05
2023-01-08T00:33:44.758Z,87.65
2023-01-08T00:34:46.603Z,84.80
2023-01-08T00:35:49.413Z,88.53
2023-01-08T00:36:51.368Z,79.88
2023-01-08T00:37:54.120Z,86.32
2023-01-08T00:38:55.916Z,72.25
2023-01-08T00:40:00.159Z,79.82
2023-01-08T00:41:01.966Z,76.05
2023-01-08T00:42:05.082Z,78.85
2023-01-08T00:43:07.091Z,98.05
2023-01-08T00:44:10.108Z,92.10
2023-01-08T00:45:12.016Z,78.70
2023-01-08T00:46:15.107Z,94.15
2023-01-08T00:47:17.053Z,96.20
2023-01-08T00:48:20.124Z,87.53
2023-01-08T00:49:22.939Z,96.32
2023-01-08T00:50:25.004Z,112.70
2023-01-08T00:51:27.871Z,94.68
2023-01-08T00:52:30.174Z,97.30
2023-01-08T00:53:32.996Z,109.40
2023-01-08T00:54:34.859Z,109.80
2023-01-08T00:55:39.115Z,91.85
2023-01-08T00:56:40.876Z,97.30
2023-01-08T00:57:44.019Z,94.70
2023-01-08T00:58:46.741Z,101.25
2023-01-08T00:59:49.659Z,81.15
2023-01-08T01:00:51.449Z,84.55
2023-01-08T01:02:12.898Z,70.07
2023-01-08T01:03:18.089Z,58.92
2023-01-08T01:04:21.090Z,77.43
2023-01-08T01:05:22.941Z,75.00
2023-01-08T01:06:25.663Z,75.32
2023-01-08T01:07:27.390Z,84.63
2023-01-08T01:08:30.685Z,91.45
2023-01-08T01:09:32.666Z,78.55
2023-01-08T01:10:35.455Z,98.97
2023-01-08T01:11:39.614Z,94.53
2023-01-08T01:12:45.147Z,91.32
2023-01-08T01:13:48.437Z,90.75
2023-01-08T01:14:50.387Z,105.88
2023-01-08T01:15:59.582Z,92.15
2023-01-08T01:17:01.608Z,117.07
2023-01-08T01:18:04.616Z,122.10
2023-01-08T01:19:06.423Z,98.20
2023-01-08T01:20:11.868Z,131.10
2023-01-08T01:21:20.013Z,123.80
2023-01-08T01:22:22.728Z,108.05
2023-01-08T01:23:24.625Z,104.30
2023-01-08T01:24:28.167Z,122.50
2023-01-08T01:27:27.140Z,110.45
2023-01-08T01:28:29.203Z,154.73
2023-01-08T01:29:32.005Z,105.68
2023-01-08T01:30:33.893Z,115.50
2023-01-08T01:31:37.001Z,131.93
2023-01-08T01:32:38.901Z,104.72
2023-01-08T01:33:41.732Z,106.47
2023-01-08T01:34:44.711Z,100.70
2023-01-08T01:35:46.493Z,97.63
2023-01-08T01:36:49.324Z,86.68
2023-01-08T01:37:51.184Z,150.30
2023-01-08T01:38:55.461Z,117.32
2023-01-08T01:39:58.197Z,106.88
2023-01-08T01:41:01.364Z,100.00
2023-01-08T01:42:04.437Z,96.03
2023-01-08T01:43:10.323Z,104.47
2023-01-08T01:44:36.193Z,99.57
2023-01-08T01:45:39.091Z,127.55
2023-01-08T01:46:41.025Z,162.45
2023-01-08T01:47:46.031Z,181.02
2023-01-08T01:48:51.134Z,144.40
2023-01-08T01:49:56.670Z,200.90
2023-01-08T01:50:58.683Z,547.00
2023-01-08T01:52:02.735Z,470.92
2023-01-08T01:53:08.124Z,466.83
2023-01-08T01:54:12.877Z,246.25
2023-01-08T01:55:18.322Z,364.40
2023-01-08T01:56:21.368Z,321.40
2023-01-08T01:57:24.927Z,409.30
2023-01-08T01:58:30.661Z,250.07
2023-01-08T01:59:32.702Z,377.98
2023-01-08T02:00:36.382Z,371.17
2023-01-08T02:01:39.423Z,319.63
2023-01-08T02:02:42.238Z,238.82
2023-01-08T02:03:44.515Z,342.90
2023-01-08T02:04:47.391Z,244.75
2023-01-08T02:05:55.134Z,391.10
2023-01-08T02:07:02.210Z,313.70
2023-01-08T02:08:07.833Z,268.50
2023-01-08T02:09:17.374Z,352.95
2023-01-08T02:10:24.776Z,310.50
2023-01-08T02:11:32.871Z,306.02
2023-01-08T02:12:39.269Z,398.77
2023-01-08T02:13:48.743Z,396.58
2023-01-08T02:14:59.997Z,321.25
2023-01-08T02:16:09.005Z,452.95
2023-01-08T02:17:14.222Z,375.85
2023-01-08T02:18:21.634Z,258.60
2023-01-08T02:19:34.538Z,246.75
2023-01-08T02:20:39.236Z,192.02
2023-01-08T02:21:47.418Z,205.68
2023-01-08T02:23:00.032Z,205.05
2023-01-08T02:24:08.023Z,348.25
2023-01-08T02:25:15.379Z,468.75
2023-01-08T02:26:22.770Z,445.00
2023-01-08T02:27:26.638Z,125.75
2023-01-08T02:28:29.182Z,172.30
2023-01-08T02:29:33.803Z,112.45
2023-01-08T02:30:36.122Z,186.32
2023-01-08T02:31:40.962Z,578.88
2023-01-08T02:32:42.964Z,404.17
2023-01-08T02:33:46.108Z,492.38
2023-01-08T02:34:47.928Z,210.10
2023-01-08T02:35:55.484Z,262.10
2023-01-08T02:36:57.752Z,106.15
2023-01-08T02:38:00.511Z,368.10
2023-01-08T02:39:17.155Z,352.30
2023-01-08T02:40:24.224Z,371.50
2023-01-08T02:41:31.587Z,286.75
2023-01-08T02:42:39.184Z,351.15
2023-01-08T02:43:44.325Z,377.98
2023-01-08T02:44:55.105Z,362.77
2023-01-08T02:46:00.492Z,447.92
2023-01-08T02:47:03.039Z,161.85
2023-01-08T02:48:10.723Z,98.68
2023-01-08T02:49:14.006Z,144.65
2023-01-08T02:50:22.503Z,138.95
2023-01-08T02:51:28.615Z,88.82
2023-01-08T02:52:34.037Z,450.33
2023-01-08T02:53:40.016Z,296.15
2023-01-08T02:54:42.539Z,499.08
2023-01-08T02:55:48.283Z,463.15
2023-01-08T02:56:53.626Z,504.90
2023-01-08T02:57:57.130Z,203.25
2023-01-08T02:58:59.997Z,136.80
2023-01-08T03:00:03.348Z,166.73
2023-01-08T03:01:09.948Z,106.40
2023-01-08T03:02:13.518Z,110.53
2023-01-08T03:03:18.760Z,83.72
2023-01-08T03:04:24.837Z,79.60
2023-01-08T03:05:28.729Z,77.82
2023-01-08T03:06:30.980Z,71.22
2023-01-08T03:07:34.069Z,86.68
2023-01-08T03:08:39.351Z,145.15
2023-01-08T03:09:42.356Z,88.13
2023-01-08T03:10:46.297Z,93.47
2023-01-08T03:11:54.905Z,82.45
2023-01-08T03:12:59.402Z,112.47
2023-01-08T03:14:05.582Z,126.47
2023-01-08T03:15:09.394Z,111.63
2023-01-08T03:16:13.515Z,107.15
2023-01-08T03:17:20.303Z,83.60
2023-01-08T03:18:27.335Z,226.80
2023-01-08T03:19:32.071Z,214.13
2023-01-08T03:20:37.211Z,218.88
2023-01-08T03:21:39.841Z,147.98
2023-01-08T03:22:44.580Z,93.80
2023-01-08T03:23:47.675Z,57.88
2023-01-08T03:24:53.915Z,98.97
2023-01-08T03:25:56.019Z,106.15
2023-01-08T03:27:04.061Z,129.98
2023-01-08T03:28:08.937Z,88.13
2023-01-08T03:29:14.227Z,78.68
2023-01-08T03:30:16.655Z,66.97
2023-01-08T03:31:20.710Z,76.70
2023-01-08T03:32:24.332Z,73.05
2023-01-08T03:33:28.458Z,165.40
2023-01-08T03:34:32.408Z,75.15
2023-01-08T03:35:37.602Z,81.25
2023-01-08T03:36:41.503Z,50.85
2023-01-08T03:37:47.152Z,83.32
2023-01-08T03:38:52.956Z,94.45
2023-01-08T03:39:59.181Z,178.13
2023-01-08T03:41:06.628Z,118.30
2023-01-08T03:42:13.514Z,55.28
2023-01-08T03:43:15.289Z,81.40
2023-01-08T03:44:18.058Z,70.95
2023-01-08T03:45:21.090Z,64.50
2023-01-08T03:46:30.570Z,68.32
2023-01-08T03:47:33.264Z,58.85
2023-01-08T03:48:36.434Z,56.85
2023-01-08T03:49:39.404Z,68.57
2023-01-08T03:50:42.446Z,75.72
2023-01-08T03:51:45.802Z,62.13
2023-01-08T03:52:48.580Z,58.80
2023-01-08T03:53:51.139Z,51.65
2023-01-08T03:54:54.280Z,56.08
2023-01-08T03:55:56.912Z,63.65
2023-01-08T03:56:59.743Z,49.50
2023-01-08T03:58:04.009Z,77.32
2023-01-08T03:59:05.746Z,64.55
2023-01-08T04:00:09.512Z,52.10
2023-01-08T04:01:11.803Z,134.85
2023-01-08T04:02:15.267Z,109.70
2023-01-08T04:03:17.147Z,55.58
2023-01-08T04:04:20.078Z,63.88
2023-01-08T04:05:22.884Z,60.63
2023-01-08T04:06:24.681Z,55.83
2023-01-08T04:07:27.512Z,99.60
2023-01-08T04:08:29.309Z,76.90
2023-01-08T04:09:32.078Z,58.72
2023-01-08T04:10:53.739Z,47.60
2023-01-08T04:11:55.579Z,44.65
2023-01-08T04:12:58.346Z,52.40
2023-01-08T04:14:01.474Z,60.63
2023-01-08T04:15:05.153Z,60.42
2023-01-08T04:16:08.202Z,65.03
2023-01-08T04:17:12.909Z,74.20
2023-01-08T04:18:15.167Z,49.60
2023-01-08T04:19:17.933Z,48.25
2023-01-08T04:20:19.832Z,49.08
2023-01-08T04:21:22.831Z,50.53
2023-01-08T04:22:24.776Z,45.42
2023-01-08T04:23:27.562Z,49.63
2023-01-08T04:24:29.517Z,48.13
2023-01-08T04:25:32.400Z,44.42
2023-01-08T04:26:34.220Z,49.60
2023-01-08T04:27:37.080Z,48.45
2023-01-08T04:28:39.474Z,51.78
2023-01-08T04:29:43.615Z,47.97
2023-01-08T04:30:45.515Z,47.60
2023-01-08T04:31:48.372Z,49.45
2023-01-08T04:32:50.178Z,43.42
2023-01-08T04:33:53.220Z,42.08
2023-01-08T04:34:55.018Z,43.25
2023-01-08T04:35:58.935Z,43.00
2023-01-08T04:37:01.931Z,39.70
2023-01-08T04:38:03.995Z,52.13
2023-01-08T04:39:06.747Z,68.03
2023-01-08T04:40:11.192Z,60.03
2023-01-08T04:41:13.007Z,59.00
2023-01-08T04:42:15.746Z,78.93
2023-01-08T04:43:17.651Z,57.25
2023-01-08T04:44:20.391Z,50.40
2023-01-08T04:45:23.503Z,59.33
2023-01-08T04:46:26.294Z,65.00
2023-01-08T04:47:28.095Z,53.95
2023-01-08T04:48:32.103Z,42.97
2023-01-08T04:49:34.277Z,49.38
2023-01-08T04:50:38.918Z,54.47
2023-01-08T04:51:40.720Z,53.38
2023-01-08T04:52:43.925Z,45.40
2023-01-08T04:53:46.385Z,49.58
2023-01-08T04:54:49.145Z,46.33
2023-01-08T04:55:51.026Z,47.90
2023-01-08T04:56:53.883Z,45.15
2023-01-08T04:57:55.631Z,43.83
2023-01-08T04:59:16.998Z,46.45
2023-01-08T05:00:19.184Z,42.60
2023-01-08T05:01:26.419Z,42.38
2023-01-08T05:02:28.563Z,43.30
2023-01-08T05:03:31.588Z,46.55
2023-01-08T05:04:34.764Z,46.60
2023-01-08T05:05:36.663Z,42.00
2023-01-08T05:06:39.552Z,43.63
2023-01-08T05:07:41.343Z,42.97
2023-01-08T05:08:44.096Z,42.00
2023-01-08T05:09:46.012Z,48.10
2023-01-08T05:10:48.789Z,49.78
2023-01-08T05:11:50.703Z,42.53
2023-01-08T05:12:53.795Z,45.35
2023-01-08T05:13:56.474Z,44.15
2023-01-08T05:14:59.322Z,41.97
2023-01-08T05:16:01.569Z,43.05
2023-01-08T05:17:05.788Z,47.42
2023-01-08T05:18:07.587Z,51.67
2023-01-08T05:19:10.400Z,48.58
2023-01-08T05:20:12.304Z,49.92
2023-01-08T05:21:15.176Z,44.08
2023-01-08T05:22:17.235Z,45.58
2023-01-08T05:23:20.036Z,46.10
2023-01-08T05:24:22.826Z,47.15
2023-01-08T05:25:25.337Z,43.55
2023-01-08T05:26:28.115Z,42.47
2023-01-08T05:27:29.858Z,52.00
2023-01-08T05:28:33.180Z,53.65
2023-01-08T05:29:34.963Z,43.80
2023-01-08T05:30:38.124Z,49.33
2023-01-08T05:31:40.012Z,49.85
2023-01-08T05:32:44.154Z,59.28
2023-01-08T05:33:45.899Z,67.97
2023-01-08T05:34:48.907Z,65.45
2023-01-08T05:35:50.756Z,61.20
2023-01-08T05:36:53.622Z,59.22
2023-01-08T05:37:55.688Z,48.58
2023-01-08T05:38:58.460Z,54.05
2023-01-08T05:40:00.245Z,45.58
2023-01-08T05:41:03.514Z,40.53
2023-01-08T05:42:05.503Z,44.88
2023-01-08T05:43:08.229Z,36.35
2023-01-08T05:44:11.394Z,42.15
2023-01-08T05:45:13.162Z,49.95
2023-01-08T05:46:16.061Z,50.60
2023-01-08T05:47:17.919Z,60.25
2023-01-08T05:48:21.980Z,49.33
2023-01-08T05:49:24.074Z,37.58
2023-01-08T05:50:27.254Z,48.50
2023-01-08T05:51:29.033Z,48.92
2023-01-08T05:52:31.779Z,46.72
2023-01-08T05:53:33.730Z,48.85
2023-01-08T05:54:36.481Z,48.47
2023-01-08T05:55:38.254Z,50.00
2023-01-08T05:56:43.915Z,76.15
2023-01-08T05:57:45.715Z,59.00
2023-01-08T05:58:48.495Z,53.53
2023-01-08T05:59:50.352Z,53.80
2023-01-08T06:00:53.140Z,48.00
2023-01-08T06:01:55.023Z,65.18
2023-01-08T06:02:57.839Z,63.60
2023-01-08T06:04:01.088Z,62.88
2023-01-08T06:05:04.028Z,50.50
2023-01-08T06:06:09.950Z,52.65
2023-01-08T06:07:12.761Z,59.85
2023-01-08T06:08:14.760Z,57.15
2023-01-08T06:09:17.690Z,52.92
2023-01-08T06:10:19.442Z,51.15
2023-01-08T06:11:22.187Z,52.17
2023-01-08T06:12:24.444Z,54.97
2023-01-08T06:13:27.263Z,54.90
2023-01-08T06:14:29.052Z,47.50
2023-01-08T06:15:31.902Z,54.83
2023-01-08T06:16:33.678Z,48.65
2023-01-08T06:17:36.755Z,47.92
2023-01-08T06:18:39.727Z,51.03
2023-01-08T06:19:42.944Z,54.88
2023-01-08T06:20:45.713Z,57.08
2023-01-08T06:22:06.213Z,63.28
2023-01-08T06:23:09.568Z,53.03
2023-01-08T06:24:11.632Z,68.05
2023-01-08T06:25:14.576Z,63.22
2023-01-08T06:26:16.430Z,73.40
2023-01-08T06:27:19.195Z,91.40
2023-01-08T06:28:21.321Z,60.25
2023-01-08T06:29:25.014Z,63.72
2023-01-08T06:30:26.853Z,71.43
2023-01-08T06:31:29.732Z,74.63
2023-01-08T06:32:31.819Z,103.13
2023-01-08T06:33:34.673Z,103.68
2023-01-08T06:34:36.543Z,59.67
2023-01-08T06:35:40.799Z,60.85
2023-01-08T06:36:42.587Z,60.65
2023-01-08T06:37:45.371Z,54.10
2023-01-08T06:38:47.232Z,57.20
2023-01-08T06:39:50.986Z,65.55
2023-01-08T06:40:52.727Z,58.28
2023-01-08T06:41:55.549Z,59.03
2023-01-08T06:43:01.303Z,48.90
2023-01-08T06:44:04.110Z,65.53
2023-01-08T06:45:07.735Z,55.55
2023-01-08T06:46:10.901Z,55.05
2023-01-08T06:47:13.629Z,54.47
2023-01-08T06:48:15.703Z,69.47
2023-01-08T06:49:19.974Z,67.35
2023-01-08T06:50:21.778Z,60.22
2023-01-08T06:51:25.942Z,57.72
2023-01-08T06:52:28.885Z,63.05
2023-01-08T06:53:31.110Z,56.58
2023-01-08T06:54:34.207Z,51.33
2023-01-08T06:55:38.178Z,63.80
2023-01-08T06:56:52.842Z,60.35
2023-01-08T06:57:57.457Z,54.55
2023-01-08T06:59:00.292Z,51.90
2023-01-08T07:00:02.471Z,52.83
2023-01-08T07:01:06.089Z,51.30
2023-01-08T07:02:12.130Z,50.53
2023-01-08T07:03:13.979Z,54.95
2023-01-08T07:04:16.792Z,65.30
2023-01-08T07:05:20.040Z,61.10
2023-01-08T07:06:22.408Z,47.70
2023-01-08T07:07:26.567Z,53.60
2023-01-08T07:08:28.346Z,52.78
2023-01-08T07:09:31.159Z,48.38
2023-01-08T07:10:34.616Z,55.75
2023-01-08T07:11:37.346Z,47.38
2023-01-08T07:12:39.167Z,51.25
2023-01-08T07:13:42.016Z,54.72
2023-01-08T07:14:45.015Z,55.08
2023-01-08T07:15:46.916Z,69.38
2023-01-08T07:16:49.811Z,57.35
2023-01-08T07:17:51.596Z,66.28
2023-01-08T07:18:54.314Z,59.15
2023-01-08T07:19:56.448Z,52.95
2023-01-08T07:20:59.224Z,52.65
2023-01-08T07:22:01.070Z,49.55
2023-01-08T07:23:06.653Z,50.72
2023-01-08T07:24:08.814Z,52.38
2023-01-08T07:25:11.970Z,51.78
2023-01-08T07:26:14.215Z,54.65
2023-01-08T07:27:16.963Z,49.88
2023-01-08T07:28:18.738Z,51.38
2023-01-08T07:29:21.859Z,52.67
2023-01-08T07:30:29.689Z,52.53
2023-01-08T07:31:33.747Z,52.97
2023-01-08T07:32:35.574Z,53.17
2023-01-08T07:33:38.337Z,47.70
2023-01-08T07:34:40.102Z,59.92
2023-01-08T07:35:43.233Z,57.40
2023-01-08T07:36:46.271Z,54.25
2023-01-08T07:37:48.064Z,59.83
2023-01-08T07:38:52.420Z,54.40
2023-01-08T07:39:54.213Z,67.35
2023-01-08T07:40:58.439Z,64.32
2023-01-08T07:42:00.333Z,63.25
2023-01-08T07:43:04.588Z,64.82
2023-01-08T07:44:06.603Z,63.95
2023-01-08T07:45:10.301Z,65.75
2023-01-08T07:46:12.153Z,64.68
2023-01-08T07:47:14.998Z,64.22
2023-01-08T07:48:17.209Z,60.28
2023-01-08T07:49:20.013Z,69.97
2023-01-08T07:50:21.870Z,65.07
2023-01-08T07:51:24.658Z,65.05
2023-01-08T07:52:26.513Z,64.15
2023-01-08T07:53:29.514Z,69.57
2023-01-08T07:54:32.735Z,67.50
2023-01-08T07:55:35.473Z,61.90
2023-01-08T07:56:37.331Z,68.30
2023-01-08T07:57:40.583Z,73.63
2023-01-08T07:58:43.664Z,66.07
2023-01-08T07:59:45.466Z,60.42
2023-01-08T08:00:48.591Z,71.50
2023-01-08T08:01:50.444Z,70.22
2023-01-08T08:02:53.467Z,66.10
2023-01-08T08:03:56.544Z,67.88
2023-01-08T08:04:58.303Z,60.45
2023-01-08T08:06:01.501Z,54.38
2023-01-08T08:07:03.356Z,55.60
2023-01-08T08:08:10.178Z,53.45
2023-01-08T08:09:12.932Z,53.47
2023-01-08T08:10:16.125Z,55.25
2023-01-08T08:11:18.837Z,54.85
2023-01-08T08:12:20.621Z,49.95
2023-01-08T08:13:23.471Z,54.72
2023-01-08T08:14:25.230Z,53.03
2023-01-08T08:15:27.986Z,52.33
2023-01-08T08:16:30.858Z,47.65
2023-01-08T08:17:32.945Z,54.65
2023-01-08T08:18:35.726Z,52.90
2023-01-08T08:19:37.579Z,52.25
2023-01-08T08:20:40.323Z,51.13
2023-01-08T08:21:43.049Z,53.15
2023-01-08T08:22:44.881Z,51.78
2023-01-08T08:23:48.007Z,52.08
2023-01-08T08:24:49.741Z,53.35
2023-01-08T08:25:53.970Z,56.28
2023-01-08T08:26:55.733Z,57.42
2023-01-08T08:27:59.370Z,54.85
2023-01-08T08:29:02.199Z,51.47
2023-01-08T08:30:04.911Z,51.00
2023-01-08T08:31:07.746Z,54.83
2023-01-08T08:32:09.568Z,52.50
2023-01-08T08:33:12.290Z,52.47
2023-01-08T08:34:14.100Z,54.17
2023-01-08T08:35:17.151Z,53.30
2023-01-08T08:36:19.941Z,58.30
2023-01-08T08:37:21.728Z,62.03
2023-01-08T08:38:24.954Z,60.13
2023-01-08T08:39:26.791Z,56.70
2023-01-08T08:40:29.857Z,53.45
2023-01-08T08:41:34.089Z,58.83
2023-01-08T08:42:36.962Z,56.13
2023-01-08T08:43:39.690Z,61.92
2023-01-08T08:44:43.024Z,56.85
2023-01-08T08:45:45.972Z,55.30
2023-01-08T08:46:48.784Z,51.90
2023-01-08T08:47:50.695Z,63.00
2023-01-08T08:48:53.391Z,64.15
2023-01-08T08:49:55.278Z,59.90
2023-01-08T08:50:58.158Z,58.60
2023-01-08T08:51:59.890Z,58.42
2023-01-08T08:53:03.461Z,62.80
2023-01-08T08:54:05.468Z,56.95
2023-01-08T08:55:09.071Z,56.42
2023-01-08T08:56:11.812Z,67.70
2023-01-08T08:57:15.032Z,64.03
2023-01-08T08:58:18.197Z,60.88
2023-01-08T08:59:22.612Z,56.88
2023-01-08T09:00:25.450Z,59.88
2023-01-08T09:01:28.287Z,58.60
2023-01-08T09:02:31.854Z,61.70
2023-01-08T09:03:35.281Z,90.68
2023-01-08T09:04:37.188Z,84.45
2023-01-08T09:05:39.955Z,55.85
2023-01-08T09:06:41.764Z,56.90
2023-01-08T09:07:44.554Z,60.40
2023-01-08T09:08:47.406Z,59.83
2023-01-08T09:09:50.155Z,60.15
2023-01-08T09:10:53.164Z,58.05
2023-01-08T09:11:55.950Z,54.67
2023-01-08T09:13:00.045Z,49.60
2023-01-08T09:14:02.876Z,55.70
2023-01-08T09:15:05.456Z,63.85
2023-01-08T09:16:09.092Z,65.47
2023-01-08T09:17:10.894Z,67.70
2023-01-08T09:18:15.889Z,66.97
2023-01-08T09:19:19.070Z,53.78
2023-01-08T09:20:20.891Z,57.95
2023-01-08T09:21:23.715Z,63.53
2023-01-08T09:22:25.718Z,58.45
2023-01-08T09:23:28.469Z,59.30
2023-01-08T09:24:32.298Z,64.43
2023-01-08T09:25:34.212Z,61.45
2023-01-08T09:26:36.961Z,54.42
2023-01-08T09:27:39.664Z,58.15
2023-01-08T09:28:43.794Z,54.83
2023-01-08T09:29:46.543Z,58.50
2023-01-08T09:30:48.287Z,48.05
2023-01-08T09:31:51.913Z,54.10
2023-01-08T09:32:58.218Z,53.00
2023-01-08T09:34:00.621Z,49.10
2023-01-08T09:35:03.591Z,48.78
2023-01-08T09:36:10.535Z,47.38
2023-01-08T09:37:12.459Z,47.63
2023-01-08T09:38:15.647Z,37.17
2023-01-08T09:39:17.375Z,35.15
2023-01-08T09:40:20.711Z,31.80
2023-01-08T09:41:26.224Z,34.30
2023-01-08T09:42:29.127Z,38.80
2023-01-08T09:43:33.307Z,32.40
2023-01-08T09:44:39.522Z,29.98
2023-01-08T09:45:43.256Z,34.50
2023-01-08T09:46:46.406Z,33.63
2023-01-08T09:47:49.640Z,32.85
2023-01-08T09:48:52.532Z,37.00
2023-01-08T09:49:58.405Z,28.42
2023-01-08T09:51:01.262Z,31.30
2023-01-08T09:52:03.855Z,35.08
2023-01-08T09:53:07.071Z,29.10
2023-01-08T09:54:15.804Z,28.48
2023-01-08T09:55:19.110Z,32.15
2023-01-08T09:56:20.951Z,29.20
2023-01-08T09:57:23.895Z,29.17
2023-01-08T09:58:33.082Z,27.70
2023-01-08T09:59:35.833Z,31.33
2023-01-08T10:00:40.076Z,33.08
2023-01-08T10:01:44.631Z,24.45
2023-01-08T10:02:46.598Z,22.38
2023-01-08T10:03:52.084Z,23.00
2023-01-08T10:04:57.595Z,22.30
2023-01-08T10:05:59.429Z,22.23
2023-01-08T10:07:07.264Z,22.60
2023-01-08T10:08:12.033Z,24.17
2023-01-08T10:09:15.992Z,21.70
2023-01-08T10:10:21.518Z,20.73
2023-01-08T10:11:23.817Z,21.52
2023-01-08T10:12:28.956Z,22.40
2023-01-08T10:13:31.327Z,22.00
2023-01-08T10:14:37.924Z,19.90
2023-01-08T10:15:42.360Z,23.58
2023-01-08T10:16:56.078Z,21.38
2023-01-08T10:18:03.379Z,24.48
2023-01-08T10:19:06.352Z,21.98
2023-01-08T10:20:13.551Z,19.35
2023-01-08T10:21:15.559Z,23.60
2023-01-08T10:22:21.156Z,24.85
2023-01-08T10:23:24.038Z,21.42
2023-01-08T10:24:34.133Z,20.42
2023-01-08T10:25:49.111Z,19.45
2023-01-08T10:26:54.368Z,21.20
2023-01-08T10:27:59.914Z,17.77
2023-01-08T10:29:16.181Z,17.20
2023-01-08T10:30:21.127Z,19.17
2023-01-08T10:31:25.350Z,23.27
2023-01-08T10:32:31.570Z,19.50
2023-01-08T10:33:42.951Z,18.33
2023-01-08T10:34:50.286Z,16.92
2023-01-08T10:35:56.113Z,14.80
2023-01-08T10:36:59.004Z,16.27
2023-01-08T10:38:01.678Z,20.23
2023-01-08T10:39:05.368Z,15.73
2023-01-08T10:40:22.039Z,16.58
2023-01-08T10:41:24.022Z,16.02
2023-01-08T10:42:27.514Z,16.38
2023-01-08T10:43:31.494Z,19.42
2023-01-08T10:44:35.856Z,16.98
2023-01-08T10:45:41.957Z,13.95
2023-01-08T10:46:48.192Z,13.68
2023-01-08T10:47:53.049Z,13.15
2023-01-08T10:48:57.958Z,15.30
2023-01-08T10:50:01.514Z,14.85
2023-01-08T10:51:24.689Z,15.95
2023-01-08T10:52:31.703Z,14.73
2023-01-08T10:53:34.663Z,12.65
2023-01-08T10:54:38.918Z,14.55
2023-01-08T10:55:41.682Z,14.90
2023-01-08T10:56:44.736Z,12.60
2023-01-08T10:57:54.961Z,14.27
2023-01-08T10:59:00.840Z,12.55
2023-01-08T11:00:04.591Z,14.40
2023-01-08T11:01:10.760Z,14.02
2023-01-08T11:02:22.730Z,12.63
2023-01-08T11:03:29.881Z,13.05
2023-01-08T11:04:34.862Z,13.23
2023-01-08T11:05:39.099Z,11.25
2023-01-08T11:06:44.294Z,10.10
2023-01-08T11:07:51.443Z,13.73
2023-01-08T11:08:55.925Z,12.70
2023-01-08T11:09:59.051Z,12.30
2023-01-08T11:11:02.581Z,12.23
2023-01-08T11:12:05.845Z,14.98
2023-01-08T11:13:09.026Z,13.23
2023-01-08T11:14:17.337Z,12.95
2023-01-08T11:15:41.648Z,13.07
2023-01-08T11:16:43.719Z,10.98
2023-01-08T11:17:47.836Z,11.63
2023-01-08T11:18:51.785Z,13.00
2023-01-08T11:19:55.961Z,13.02
2023-01-08T11:21:08.920Z,14.27
2023-01-08T11:22:19.932Z,11.55
2023-01-08T11:23:25.092Z,11.80
2023-01-08T11:24:28.744Z,14.20
2023-01-08T11:25:32.282Z,11.68
2023-01-08T11:26:35.567Z,12.82
2023-01-08T11:27:41.089Z,11.45
2023-01-08T11:28:49.723Z,14.18
2023-01-08T11:29:58.140Z,13.00
2023-01-08T11:31:06.327Z,12.60
2023-01-08T11:32:31.628Z,12.27
2023-01-08T11:33:37.469Z,11.73
2023-01-08T11:34:46.231Z,12.57
2023-01-08T11:35:51.716Z,12.50
2023-01-08T11:36:58.826Z,11.43
2023-01-08T11:38:01.937Z,13.38
2023-01-08T11:39:04.815Z,11.90
2023-01-08T11:40:14.075Z,11.77
2023-01-08T11:41:25.889Z,13.10
2023-01-08T11:42:39.088Z,10.60
2023-01-08T11:43:56.161Z,13.20
2023-01-08T11:45:07.449Z,13.25
2023-01-08T11:46:29.555Z,11.80
2023-01-08T11:47:44.884Z,14.80
2023-01-08T11:49:03.629Z,12.15
2023-01-08T11:50:14.096Z,13.05
2023-01-08T11:51:31.011Z,12.77
2023-01-08T11:52:44.458Z,10.35
2023-01-08T11:53:50.363Z,12.43
2023-01-08T11:55:08.448Z,11.05
2023-01-08T11:56:21.477Z,12.10
2023-01-08T11:57:35.018Z,11.88
2023-01-08T11:58:53.523Z,12.95
2023-01-08T12:00:10.687Z,11.73
2023-01-08T12:01:29.418Z,14.30
2023-01-08T12:02:47.596Z,11.68
2023-01-08T12:04:01.644Z,10.18
2023-01-08T12:05:29.205Z,12.35
2023-01-08T12:06:38.170Z,13.73
2023-01-08T12:07:47.126Z,12.68
2023-01-08T12:08:55.410Z,12.32
2023-01-08T12:10:02.286Z,12.98
2023-01-08T12:11:12.376Z,10.63
2023-01-08T12:12:22.596Z,11.27
2023-01-08T12:13:46.816Z,10.90
2023-01-08T12:14:57.438Z,9.52
2023-01-08T12:16:08.976Z,12.00
2023-01-08T12:17:37.433Z,11.15
2023-01-08T12:18:52.021Z,11.15
2023-01-08T12:20:03.839Z,11.52
2023-01-08T12:21:12.352Z,11.77
2023-01-08T12:22:28.249Z,9.40
2023-01-08T12:23:42.988Z,11.77
2023-01-08T12:24:55.277Z,11.40
2023-01-08T12:26:19.346Z,9.90
2023-01-08T12:27:40.855Z,8.30
2023-01-08T12:29:03.912Z,10.02
2023-01-08T12:30:16.261Z,8.85
2023-01-08T12:31:30.436Z,10.85
2023-01-08T12:32:36.369Z,9.60
2023-01-08T12:33:41.022Z,9.43
2023-01-08T12:34:51.148Z,9.32
2023-01-08T12:35:56.054Z,10.65
2023-01-08T12:37:04.243Z,10.13
2023-01-08T12:38:11.495Z,9.45
2023-01-08T12:39:18.071Z,11.13
2023-01-08T12:40:41.960Z,10.07
2023-01-08T12:41:44.307Z,9.57
2023-01-08T12:42:53.450Z,10.40
2023-01-08T12:44:04.877Z,8.02
2023-01-08T12:45:14.330Z,9.15
2023-01-08T12:46:17.842Z,8.07
2023-01-08T12:47:40.206Z,10.35
2023-01-08T12:48:44.908Z,10.35
2023-01-08T12:49:51.537Z,7.65
2023-01-08T12:51:00.968Z,8.85
2023-01-08T12:52:07.547Z,8.27
2023-01-08T12:53:15.555Z,9.00
2023-01-08T12:54:24.843Z,8.82
2023-01-08T12:55:32.216Z,11.10
2023-01-08T12:56:41.236Z,8.27
2023-01-08T12:57:46.512Z,10.93
2023-01-08T12:59:04.924Z,8.52
2023-01-08T13:00:11.640Z,8.65
2023-01-08T13:01:25.211Z,9.88
2023-01-08T13:02:35.291Z,9.13
2023-01-08T13:03:41.284Z,8.25
2023-01-08T13:04:45.758Z,11.23
2023-01-08T13:05:49.429Z,17.00
2023-01-08T13:06:54.288Z,12.32
2023-01-08T13:07:57.690Z,16.27
2023-01-08T13:09:01.793Z,11.10
2023-01-08T13:10:06.832Z,11.20
2023-01-08T13:11:09.957Z,16.33
2023-01-08T13:12:15.941Z,16.17
2023-01-08T13:13:27.590Z,11.60
2023-01-08T13:14:41.788Z,9.13
2023-01-08T13:15:45.144Z,9.40
2023-01-08T13:16:48.926Z,10.13
2023-01-08T13:17:52.354Z,9.95
2023-01-08T13:18:56.827Z,15.07
2023-01-08T13:20:02.224Z,10.85
2023-01-08T13:21:06.301Z,10.88
2023-01-08T13:22:26.903Z,9.07
2023-01-08T13:23:30.485Z,10.45
2023-01-08T13:24:35.476Z,9.85
2023-01-08T13:25:39.960Z,10.48
2023-01-08T13:26:41.771Z,9.52
2023-01-08T13:27:44.794Z,9.52
2023-01-08T13:28:46.620Z,9.55
2023-01-08T13:29:50.447Z,10.60
2023-01-08T13:30:55.571Z,10.73
2023-01-08T13:31:58.423Z,11.98
2023-01-08T13:33:01.353Z,10.85
2023-01-08T13:34:04.116Z,9.95
2023-01-08T13:35:29.446Z,9.93
2023-01-08T13:36:32.693Z,11.75
2023-01-08T13:37:35.419Z,12.90
2023-01-08T13:38:37.223Z,11.00
2023-01-08T13:39:40.136Z,11.48
2023-01-08T13:40:56.560Z,11.82
2023-01-08T13:42:21.427Z,10.77
2023-01-08T13:43:26.562Z,12.48
2023-01-08T13:44:32.067Z,10.43
2023-01-08T13:45:34.054Z,11.52
2023-01-08T13:46:40.750Z,12.07
2023-01-08T13:47:43.744Z,13.15
2023-01-08T13:48:52.272Z,11.10
2023-01-08T13:49:55.819Z,11.02
2023-01-08T13:50:58.692Z,10.60
2023-01-08T13:52:02.931Z,12.80
2023-01-08T13:53:04.914Z,10.93
2023-01-08T13:54:18.679Z,11.35